Time;durP1;ratioP1;P1;durP2;ratioP2;P2;SDS_P1;SDS_P2;PMS_P1;PMS_P2;Temp;Humidity;BMP_temperature;BMP_pressure;BME280_temperature;BME280_humidity;BME280_pressure;Samples;Min_cycle;Max_cycle;Signal;HPM_P1;HPM_P2
2020/12/28 00:00:17;;;;;;;23.05;11.30;;;;;;;-1.41;84.12;99952.20;1773377;79;21186;-70
2020/12/28 00:02:44;;;;;;;24.05;10.30;;;;;;;-1.40;83.10;99952.60;1796270;79;21135;-71
2020/12/28 00:05:12;;;;;;;21.52;11.73;;;;;;;-1.39;82.84;99945.65;1782290;79;21207;-70
2020/12/28 00:07:41;;;;;;;20.37;10.60;;;;;;;-1.38;82.64;99949.48;1794143;79;21183;-70
2020/12/28 00:10:11;;;;;;;20.57;11.08;;;;;;;-1.35;82.42;99939.87;1774016;79;21186;-70
2020/12/28 00:12:49;;;;;;;21.75;10.50;;;;;;;-1.30;82.29;99958.70;1745822;80;21321;-70
2020/12/28 00:15:24;;;;;;;20.48;10.38;;;;;;;-1.29;82.24;99952.58;1781776;80;21155;-71
2020/12/28 00:17:54;;;;;;;20.75;10.48;;;;;;;-1.26;81.65;99939.02;1778031;79;21579;-69
2020/12/28 00:20:24;;;;;;;21.75;10.50;;;;;;;-1.26;81.47;99944.20;1785758;79;21296;-69
2020/12/28 00:22:53;;;;;;;20.25;9.55;;;;;;;-1.24;81.00;99952.77;1761125;80;21176;-70
2020/12/28 00:25:25;;;;;;;19.05;9.88;;;;;;;-1.24;80.90;99922.92;1787736;79;21636;-70
2020/12/28 00:27:53;;;;;;;17.32;8.90;;;;;;;-1.21;80.48;99943.56;1786560;79;21222;-69
2020/12/28 00:30:21;;;;;;;18.07;9.28;;;;;;;-1.21;79.72;99925.39;1799307;79;21325;-69
2020/12/28 00:32:49;;;;;;;16.23;9.35;;;;;;;-1.19;79.89;99922.27;1789816;79;21178;-70
2020/12/28 00:35:17;;;;;;;18.85;8.78;;;;;;;-1.18;79.72;99932.19;1745048;80;21562;-70
2020/12/28 00:37:44;;;;;;;18.75;8.55;;;;;;;-1.17;79.35;99921.75;1728696;79;21272;-70
2020/12/28 00:40:12;;;;;;;16.17;7.97;;;;;;;-1.14;78.82;99911.70;1790199;79;21314;-69
2020/12/28 00:42:40;;;;;;;16.40;8.50;;;;;;;-1.14;78.54;99904.35;1776069;80;21595;-69
2020/12/28 00:45:08;;;;;;;14.95;8.75;;;;;;;-1.12;78.62;99895.60;1751708;80;21146;-70
2020/12/28 00:47:37;;;;;;;13.80;7.97;;;;;;;-1.12;78.72;99912.91;1795881;79;21167;-69
2020/12/28 00:50:05;;;;;;;15.05;8.50;;;;;;;-1.10;78.40;99902.03;1786412;79;21170;-69
2020/12/28 00:52:33;;;;;;;14.47;8.10;;;;;;;-1.13;78.58;99890.02;1757085;80;21325;-69
2020/12/28 00:55:03;;;;;;;16.50;9.38;;;;;;;-1.10;78.70;99896.38;1786373;79;21131;-70
2020/12/28 00:57:31;;;;;;;16.65;9.30;;;;;;;-1.09;78.42;99892.84;1783938;79;21159;-69
2020/12/28 01:00:01;;;;;;;15.58;8.90;;;;;;;-1.08;78.08;99899.73;1752000;80;21285;-69
2020/12/28 01:03:03;;;;;;;14.55;8.65;;;;;;;-1.01;77.87;99882.98;1800470;78;23024;-70
2020/12/28 01:05:51;;;;;;;16.12;8.28;;;;;;;-1.07;77.77;99891.02;1766927;80;21159;-70
2020/12/28 01:08:19;;;;;;;17.17;10.23;;;;;;;-1.05;77.67;99889.66;1755957;81;21604;-70
2020/12/28 01:10:47;;;;;;;16.35;9.43;;;;;;;-1.06;77.75;99883.64;1732979;83;21153;-70
2020/12/28 01:13:15;;;;;;;16.12;9.05;;;;;;;-1.05;77.57;99867.16;1733120;83;21305;-70
2020/12/28 01:15:44;;;;;;;17.32;9.10;;;;;;;-1.04;77.31;99876.62;1729487;83;21193;-70
2020/12/28 01:18:13;;;;;;;17.77;10.75;;;;;;;-1.03;77.21;99865.34;1717954;82;21163;-71
2020/12/28 01:20:43;;;;;;;16.30;9.35;;;;;;;-1.00;76.79;99891.14;1726840;83;21290;-70
2020/12/28 01:23:12;;;;;;;19.52;11.30;;;;;;;-0.98;76.70;99880.22;1732905;83;21211;-70
2020/12/28 01:25:42;;;;;;;21.70;10.98;;;;;;;-0.93;76.23;99861.02;1700098;83;21176;-70
2020/12/28 01:28:10;;;;;;;16.07;10.00;;;;;;;-0.93;76.17;99864.92;1730636;83;21220;-70
2020/12/28 01:30:38;;;;;;;20.12;10.78;;;;;;;-0.90;76.04;99850.47;1732994;83;21197;-70
2020/12/28 01:33:07;;;;;;;22.48;10.78;;;;;;;-0.89;76.11;99846.52;1728016;83;21179;-70
2020/12/28 01:35:39;;;;;;;20.23;11.03;;;;;;;-0.87;75.72;99849.05;1689144;83;21191;-71
2020/12/28 01:38:07;;;;;;;19.85;11.05;;;;;;;-0.85;75.72;99831.63;1712707;82;21749;-70
2020/12/28 01:40:34;;;;;;;19.75;10.60;;;;;;;-0.83;75.63;99826.74;1712951;82;21192;-70
2020/12/28 01:43:04;;;;;;;18.62;10.00;;;;;;;-0.79;75.28;99828.73;1725631;83;21601;-70
2020/12/28 01:45:31;;;;;;;16.87;9.83;;;;;;;-0.78;75.10;99820.05;1689933;82;21330;-70
2020/12/28 01:48:01;;;;;;;22.17;10.70;;;;;;;-0.75;74.66;99848.45;1707264;83;21162;-70
2020/12/28 01:50:29;;;;;;;21.30;10.93;;;;;;;-0.77;74.60;99826.91;1682312;84;21221;-70
2020/12/28 01:52:57;;;;;;;19.60;10.32;;;;;;;-0.75;74.71;99821.18;1669357;84;21312;-69
2020/12/28 01:55:26;;;;;;;19.77;10.80;;;;;;;-0.75;74.64;99817.28;1679020;84;21342;-70
2020/12/28 01:57:56;;;;;;;22.85;11.05;;;;;;;-0.73;74.37;99823.71;1666547;84;21193;-69
2020/12/28 02:00:25;;;;;;;17.90;10.32;;;;;;;-0.73;74.00;99798.60;1678886;84;21391;-70
2020/12/28 02:02:55;;;;;;;22.35;11.05;;;;;;;-0.74;74.09;99803.40;1700458;84;21170;-70
2020/12/28 02:05:27;;;;;;;18.37;8.80;;;;;;;-0.74;74.03;99802.10;1693471;84;21587;-69
2020/12/28 02:07:56;;;;;;;20.00;10.68;;;;;;;-0.76;73.83;99819.98;1656016;84;21182;-68
2020/12/28 02:10:24;;;;;;;17.85;9.90;;;;;;;-0.77;74.15;99794.45;1683683;84;21201;-69
2020/12/28 02:12:52;;;;;;;18.25;10.25;;;;;;;-0.79;74.51;99797.14;1700416;84;21178;-69
2020/12/28 02:15:20;;;;;;;18.77;10.28;;;;;;;-0.76;74.67;99814.79;1677712;84;21206;-69
2020/12/28 02:18:06;;;;;;;18.48;10.00;;;;;;;-0.75;74.78;99790.48;1678349;84;21190;-70
2020/12/28 02:20:37;;;;;;;16.02;9.35;;;;;;;-0.75;74.86;99787.88;1672744;84;21319;-69
2020/12/28 02:23:04;;;;;;;17.70;10.30;;;;;;;-0.72;74.98;99798.97;1687815;84;21223;-69
2020/12/28 02:25:32;;;;;;;15.95;9.90;;;;;;;-0.70;75.26;99793.70;1676465;84;21340;-69
2020/12/28 02:28:00;;;;;;;14.87;9.00;;;;;;;-0.68;75.16;99794.47;1676028;84;21190;-68
2020/12/28 02:30:28;;;;;;;16.48;9.50;;;;;;;-0.70;75.31;99786.75;1654368;84;21157;-69
2020/12/28 02:33:40;;;;;;;15.98;8.73;;;;;;;-0.65;75.63;99783.48;1808520;78;23342;-70
2020/12/28 02:36:13;;;;;;;17.25;9.73;;;;;;;-0.71;75.73;99798.50;1729262;83;21723;-69
2020/12/28 02:38:41;;;;;;;16.05;9.93;;;;;;;-0.68;75.96;99782.31;1761351;81;21203;-69
2020/12/28 02:41:09;;;;;;;17.25;9.08;;;;;;;-0.67;76.20;99792.27;1729247;83;21312;-69
2020/12/28 02:43:54;;;;;;;17.20;10.18;;;;;;;-0.64;76.34;99788.20;1762399;81;21596;-70
2020/12/28 02:46:40;;;;;;;14.33;8.55;;;;;;;-0.65;76.51;99786.08;1700143;83;21200;-69
2020/12/28 02:49:26;;;;;;;15.32;9.35;;;;;;;-0.67;76.37;99775.39;1721108;83;21175;-70
2020/12/28 02:52:13;;;;;;;14.70;9.15;;;;;;;-0.72;76.68;99788.58;1725262;83;21173;-70
2020/12/28 02:54:59;;;;;;;14.30;8.80;;;;;;;-0.71;76.85;99780.33;1657000;84;21189;-70
2020/12/28 02:57:45;;;;;;;12.68;8.10;;;;;;;-0.72;76.95;99776.89;1686950;84;21213;-69
2020/12/28 03:00:31;;;;;;;12.85;8.10;;;;;;;-0.73;76.91;99776.96;1678809;84;21317;-70
2020/12/28 03:03:17;;;;;;;13.58;8.93;;;;;;;-0.75;77.12;99774.44;1675011;84;21238;-68
2020/12/28 03:06:04;;;;;;;12.75;8.20;;;;;;;-0.77;77.24;99772.37;1691896;84;21212;-68
2020/12/28 03:08:51;;;;;;;13.65;8.38;;;;;;;-0.78;77.35;99773.30;1699161;84;21165;-69
2020/12/28 03:11:38;;;;;;;14.85;8.40;;;;;;;-0.79;77.59;99767.71;1682687;84;21185;-70
2020/12/28 03:14:24;;;;;;;12.23;7.70;;;;;;;-0.78;77.24;99762.91;1675103;84;21217;-70
2020/12/28 03:17:11;;;;;;;15.30;8.70;;;;;;;-0.81;77.23;99746.17;1694704;84;21190;-70
2020/12/28 03:20:13;;;;;;;16.15;9.33;;;;;;;-0.78;77.46;99748.63;1813425;78;23077;-69
2020/12/28 03:23:00;;;;;;;16.17;8.93;;;;;;;-0.84;77.51;99755.40;1752155;81;21322;-70
2020/12/28 03:25:47;;;;;;;13.70;8.08;;;;;;;-0.84;77.37;99757.56;1727205;83;21326;-70
2020/12/28 03:28:33;;;;;;;16.12;8.85;;;;;;;-0.83;77.34;99753.20;1718561;83;21182;-69
2020/12/28 03:31:19;;;;;;;19.07;8.53;;;;;;;-0.84;77.43;99755.40;1687557;82;21140;-69
2020/12/28 03:34:06;;;;;;;14.70;8.68;;;;;;;-0.87;77.44;99757.70;1733866;81;21179;-69
2020/12/28 03:36:52;;;;;;;14.68;8.80;;;;;;;-0.86;77.54;99761.12;1711568;82;21880;-69
2020/12/28 03:39:38;;;;;;;15.43;8.50;;;;;;;-0.86;77.61;99758.53;1701929;83;21621;-69
2020/12/28 03:42:24;;;;;;;15.68;8.68;;;;;;;-0.87;77.51;99761.59;1595326;89;21198;-69
2020/12/28 03:45:12;;;;;;;14.30;8.98;;;;;;;-0.89;77.75;99747.84;1686555;83;21230;-69
2020/12/28 03:47:59;;;;;;;17.55;9.38;;;;;;;-0.87;77.65;99750.37;1695974;84;21213;-68
2020/12/28 03:50:45;;;;;;;16.25;9.10;;;;;;;-0.89;77.76;99754.80;1683240;84;21324;-70
2020/12/28 03:53:31;;;;;;;15.05;8.18;;;;;;;-0.89;77.76;99759.53;1700770;84;21196;-70
2020/12/28 03:56:19;;;;;;;15.78;9.43;;;;;;;-0.91;77.80;99741.05;1730959;83;21175;-69
2020/12/28 03:59:06;;;;;;;15.40;9.43;;;;;;;-0.93;77.82;99751.51;1723311;83;21588;-69
2020/12/28 04:01:52;;;;;;;16.93;9.65;;;;;;;-0.94;78.02;99736.00;1707199;83;21199;-69
2020/12/28 04:04:40;;;;;;;17.95;8.98;;;;;;;-0.92;78.00;99725.08;1713944;83;21274;-69
2020/12/28 04:07:43;;;;;;;16.45;9.90;;;;;;;-0.88;78.10;99726.17;1814687;78;23109;-69
2020/12/28 04:10:30;;;;;;;17.40;9.40;;;;;;;-0.91;77.92;99714.62;1785880;80;21588;-69
2020/12/28 04:13:06;;;;;;;15.20;9.20;;;;;;;-0.90;77.72;99726.67;1785604;80;21263;-69
2020/12/28 04:15:35;;;;;;;16.07;10.30;;;;;;;-0.89;77.73;99734.03;1752133;81;21104;-70
2020/12/28 04:18:03;;;;;;;17.00;9.40;;;;;;;-0.89;77.48;99717.16;1716739;82;21182;-69
2020/12/28 04:20:31;;;;;;;17.17;10.00;;;;;;;-0.89;77.61;99720.58;1728946;83;21200;-70
2020/12/28 04:22:58;;;;;;;17.92;9.00;;;;;;;-0.88;77.46;99731.80;1758316;81;21302;-69
2020/12/28 04:25:26;;;;;;;15.48;9.48;;;;;;;-0.88;77.43;99729.20;1721103;83;21608;-69
2020/12/28 04:27:54;;;;;;;19.23;9.98;;;;;;;-0.88;77.59;99712.33;1731176;81;21167;-70
2020/12/28 04:30:21;;;;;;;16.77;9.88;;;;;;;-0.91;77.66;99702.11;1734022;81;21195;-70
2020/12/28 04:32:48;;;;;;;16.95;9.95;;;;;;;-0.91;77.96;99702.94;1755269;81;21194;-69
2020/12/28 04:35:17;;;;;;;17.98;9.93;;;;;;;-0.92;78.13;99694.75;1719807;83;21583;-69
2020/12/28 04:37:45;;;;;;;16.48;9.50;;;;;;;-0.91;78.35;99715.92;1734531;81;21186;-70
2020/12/28 04:40:12;;;;;;;18.07;9.58;;;;;;;-0.90;78.00;99685.59;1753887;81;21167;-70
2020/12/28 04:42:44;;;;;;;16.80;9.25;;;;;;;-0.91;78.30;99677.44;1722467;83;21345;-70
2020/12/28 04:45:11;;;;;;;14.95;9.25;;;;;;;-0.87;78.19;99675.91;1743276;81;21187;-69
2020/12/28 04:47:38;;;;;;;15.88;9.18;;;;;;;-0.86;78.06;99665.05;1730189;83;21176;-69
2020/12/28 04:50:06;;;;;;;18.65;10.50;;;;;;;-0.84;77.54;99656.29;1747077;81;21200;-69
2020/12/28 04:52:34;;;;;;;15.93;9.70;;;;;;;-0.86;77.46;99665.05;1703823;82;21785;-70
2020/12/28 04:55:02;;;;;;;16.60;9.80;;;;;;;-0.84;77.58;99676.20;1694147;84;21196;-69
2020/12/28 04:57:30;;;;;;;15.20;9.13;;;;;;;-0.83;77.70;99668.80;1714544;83;21290;-70
2020/12/28 05:00:00;;;;;;;16.57;9.45;;;;;;;-0.83;77.12;99664.91;1743083;81;21153;-70
2020/12/28 05:02:27;;;;;;;15.30;8.48;;;;;;;-0.79;76.88;99662.53;1742454;81;21164;-69
2020/12/28 05:05:08;;;;;;;20.27;9.88;;;;;;;-0.77;76.84;99667.66;1698160;82;21629;-69
2020/12/28 05:07:37;;;;;;;19.07;9.48;;;;;;;-0.75;76.37;99665.83;1748018;81;21585;-70
2020/12/28 05:10:04;;;;;;;15.65;8.83;;;;;;;-0.75;76.02;99670.55;1698798;84;21196;-70
2020/12/28 05:12:32;;;;;;;18.57;9.65;;;;;;;-0.71;75.76;99659.11;1690823;83;21140;-69
2020/12/28 05:15:07;;;;;;;16.65;8.90;;;;;;;-0.70;75.72;99659.95;1722954;82;21128;-69
2020/12/28 05:17:35;;;;;;;15.43;8.80;;;;;;;-0.68;75.83;99671.92;1741949;81;21220;-72
2020/12/28 05:20:03;;;;;;;16.48;8.83;;;;;;;-0.65;75.52;99654.07;1741540;81;21313;-69
2020/12/28 05:22:31;;;;;;;16.37;9.35;;;;;;;-0.65;75.42;99657.97;1691217;84;21188;-71
2020/12/28 05:24:59;;;;;;;17.10;9.08;;;;;;;-0.63;75.71;99655.66;1712246;83;21170;-70
2020/12/28 05:27:26;;;;;;;17.67;10.20;;;;;;;-0.62;76.02;99674.67;1740321;81;21183;-70
2020/12/28 05:29:54;;;;;;;16.82;9.85;;;;;;;-0.60;76.13;99663.75;1690291;84;21209;-70
2020/12/28 05:32:23;;;;;;;19.65;10.63;;;;;;;-0.62;76.30;99661.25;1691092;83;21187;-70
2020/12/28 05:34:50;;;;;;;19.87;10.23;;;;;;;-0.62;76.30;99653.45;1679080;84;21311;-70
2020/12/28 05:37:18;;;;;;;21.48;10.03;;;;;;;-0.61;76.36;99673.30;1679049;84;21650;-70
2020/12/28 05:39:46;;;;;;;16.90;9.73;;;;;;;-0.61;76.38;99669.41;1680265;84;21613;-70
2020/12/28 05:42:14;;;;;;;20.72;11.25;;;;;;;-0.61;76.50;99653.82;1716068;83;21603;-70
2020/12/28 05:44:43;;;;;;;18.82;10.95;;;;;;;-0.61;76.82;99660.31;1678791;84;21187;-70
2020/12/28 05:47:13;;;;;;;19.42;10.72;;;;;;;-0.59;76.99;99671.47;1707577;84;21350;-70
2020/12/28 05:49:45;;;;;;;17.92;10.88;;;;;;;-0.57;77.15;99678.36;1707918;84;21405;-70
2020/12/28 05:52:14;;;;;;;18.73;10.32;;;;;;;-0.59;77.11;99679.27;1740670;81;21704;-69
2020/12/28 05:54:42;;;;;;;18.35;11.00;;;;;;;-0.61;76.98;99672.00;1711793;82;21172;-69
2020/12/28 05:57:10;;;;;;;18.40;10.60;;;;;;;-0.62;77.26;99669.05;1690727;84;21203;-69
2020/12/28 05:59:38;;;;;;;21.45;10.25;;;;;;;-0.61;77.12;99684.16;1740848;81;21579;-69
2020/12/28 06:02:10;;;;;;;16.67;9.53;;;;;;;-0.63;77.06;99671.25;1689248;84;21203;-70
2020/12/28 06:04:38;;;;;;;18.75;10.03;;;;;;;-0.60;76.88;99674.14;1634791;84;21636;-71
2020/12/28 06:07:05;;;;;;;19.17;10.53;;;;;;;-0.61;76.85;99677.67;1705184;82;21310;-70
2020/12/28 06:09:33;;;;;;;16.87;9.73;;;;;;;-0.60;76.65;99669.80;1746604;82;21728;-70
2020/12/28 06:12:05;;;;;;;14.58;9.58;;;;;;;-0.59;76.47;99672.77;1747293;81;21188;-71
2020/12/28 06:14:38;;;;;;;17.00;10.48;;;;;;;-0.61;76.26;99665.98;1702105;83;21726;-70
2020/12/28 06:17:12;;;;;;;17.25;9.80;;;;;;;-0.60;76.28;99669.80;1742726;81;21204;-69
2020/12/28 06:19:41;;;;;;;14.53;9.33;;;;;;;-0.60;76.21;99676.73;1706834;82;21172;-70
2020/12/28 06:22:23;;;;;;;17.40;9.98;;;;;;;-0.59;76.11;99673.23;1716097;82;21763;-70
2020/12/28 06:25:06;;;;;;;16.55;9.28;;;;;;;-0.60;76.08;99668.50;1737800;81;21172;-69
2020/12/28 06:27:37;;;;;;;17.23;9.93;;;;;;;-0.58;75.90;99663.20;1710917;81;21326;-70
2020/12/28 06:30:19;;;;;;;17.92;9.30;;;;;;;-0.59;76.16;99664.97;1741766;82;21163;-69
2020/12/28 06:33:04;;;;;;;14.58;8.90;;;;;;;-0.56;76.08;99661.40;1739877;82;21204;-70
2020/12/28 06:35:32;;;;;;;15.10;8.75;;;;;;;-0.56;76.29;99655.34;1741608;81;21623;-69
2020/12/28 06:38:01;;;;;;;18.73;10.63;;;;;;;-0.55;76.50;99642.28;1743282;82;21167;-70
2020/12/28 06:40:39;;;;;;;17.15;9.45;;;;;;;-0.59;76.88;99644.19;1721013;81;21593;-70
2020/12/28 06:43:13;;;;;;;14.20;9.13;;;;;;;-0.60;77.16;99633.44;1742009;81;21574;-70
2020/12/28 06:45:42;;;;;;;18.15;9.55;;;;;;;-0.61;77.64;99633.05;1743273;81;21201;-68
2020/12/28 06:48:22;;;;;;;16.93;9.88;;;;;;;-0.63;77.97;99625.79;1737682;81;21147;-70
2020/12/28 06:50:52;;;;;;;18.32;10.18;;;;;;;-0.59;78.41;99636.40;1718612;82;21692;-71
2020/12/28 06:53:23;;;;;;;16.55;10.05;;;;;;;-0.59;78.71;99626.48;1747613;81;21165;-70
2020/12/28 06:55:51;;;;;;;17.82;10.58;;;;;;;-0.57;78.60;99620.73;1747607;82;21609;-70
2020/12/28 06:58:20;;;;;;;17.37;10.20;;;;;;;-0.59;78.82;99623.41;1743288;82;21638;-70
2020/12/28 07:00:52;;;;;;;18.70;10.45;;;;;;;-0.59;78.93;99629.91;1740556;81;21623;-70
2020/12/28 07:03:20;;;;;;;15.32;9.50;;;;;;;-0.57;79.37;99612.95;1692466;82;21322;-69
2020/12/28 07:05:47;;;;;;;18.05;9.70;;;;;;;-0.56;79.11;99621.57;1746834;82;21815;-70
2020/12/28 07:08:21;;;;;;;18.27;11.00;;;;;;;-0.56;79.18;99631.52;1741054;81;21249;-69
2020/12/28 07:10:48;;;;;;;;;;;;;;;-0.55;79.38;99646.64;1747483;82;21594;-69
2020/12/28 07:13:15;;;;;;;15.85;10.05;;;;;;;-0.54;79.33;99616.70;1717183;82;20228;-69
2020/12/28 07:15:43;;;;;;;19.70;10.32;;;;;;;-0.53;79.15;99610.56;1739206;81;21325;-70
2020/12/28 07:18:10;;;;;;;18.15;10.40;;;;;;;-0.52;79.44;99612.72;1747077;82;21252;-70
2020/12/28 07:20:38;;;;;;;18.65;10.72;;;;;;;-0.52;79.37;99617.92;1697541;82;21607;-71
2020/12/28 07:23:06;;;;;;;18.05;10.05;;;;;;;-0.53;79.66;99604.53;1705183;82;21289;-71
2020/12/28 07:25:33;;;;;;;17.70;10.55;;;;;;;-0.51;79.68;99596.20;1741211;81;21163;-69
2020/12/28 07:28:01;;;;;;;16.27;9.70;;;;;;;-0.49;79.70;99596.95;1741468;81;21200;-70
2020/12/28 07:30:28;;;;;;;19.98;11.20;;;;;;;-0.46;79.79;99594.20;1746791;81;21169;-69
2020/12/28 07:32:57;;;;;;;17.25;10.30;;;;;;;-0.40;79.75;99613.36;1737343;81;21155;-67
2020/12/28 07:35:28;;;;;;;19.75;11.55;;;;;;;-0.41;79.59;99598.24;1729038;82;21295;-67
2020/12/28 07:37:57;;;;;;;18.48;11.38;;;;;;;-0.37;79.36;99604.13;1736360;82;21374;-69
2020/12/28 07:40:24;;;;;;;20.43;11.50;;;;;;;-0.36;79.00;99597.16;1669904;83;21215;-74
2020/12/28 07:42:52;;;;;;;20.08;11.33;;;;;;;-0.34;78.81;99596.14;1720077;83;21342;-71
2020/12/28 07:45:21;;;;;;;17.37;10.40;;;;;;;-0.32;78.74;99602.09;1686647;84;21185;-71
2020/12/28 07:47:55;;;;;;;18.62;11.30;;;;;;;-0.32;78.39;99589.10;1683063;83;21175;-70
2020/12/28 07:50:23;;;;;;;21.93;12.10;;;;;;;-0.29;78.18;99594.15;1717096;82;21778;-69
2020/12/28 07:53:12;;;;;;;20.75;11.90;;;;;;;-0.33;78.37;99594.41;1683581;82;21365;-71
2020/12/28 07:55:44;;;;;;;20.08;12.00;;;;;;;-0.35;78.37;99586.69;1737128;81;21352;-72
2020/12/28 07:58:45;;;;;;;21.12;11.90;;;;;;;-0.39;78.38;99574.78;1737190;82;21544;-73
2020/12/28 08:01:31;;;;;;;19.98;11.63;;;;;;;-0.38;78.57;99585.54;1719520;81;21258;-78
2020/12/28 08:04:03;;;;;;;19.45;11.20;;;;;;;-0.40;78.67;99592.11;1696542;83;21234;-68
2020/12/28 08:06:30;;;;;;;19.52;12.10;;;;;;;-0.38;78.69;99586.01;1683607;84;21232;-75
2020/12/28 08:09:02;;;;;;;19.52;11.80;;;;;;;-0.41;78.54;99594.34;1720486;81;21212;-69
2020/12/28 08:11:30;;;;;;;19.40;11.60;;;;;;;-0.41;78.54;99593.05;1717246;81;21179;-68
2020/12/28 08:13:59;;;;;;;20.12;11.43;;;;;;;-0.39;78.34;99592.97;1717453;83;21238;-71
2020/12/28 08:16:27;;;;;;;21.33;12.28;;;;;;;-0.38;78.29;99586.01;1717656;83;21211;-73
2020/12/28 08:18:56;;;;;;;19.55;12.07;;;;;;;-0.36;77.97;99588.06;1715611;83;21219;-71
2020/12/28 08:21:25;;;;;;;17.82;11.35;;;;;;;-0.38;78.15;99582.94;1723718;82;21173;-69
2020/12/28 08:23:56;;;;;;;22.58;12.05;;;;;;;-0.35;78.42;99581.95;1705779;82;21178;-73
2020/12/28 08:26:26;;;;;;;19.60;11.05;;;;;;;-0.34;77.84;99597.45;1744614;81;21167;-78
2020/12/28 08:28:56;;;;;;;22.15;13.22;;;;;;;-0.33;77.68;99603.50;1739933;81;21795;-70
2020/12/28 08:31:36;;;;;;;20.12;11.85;;;;;;;-0.30;77.53;99600.72;1742486;81;21278;-72
2020/12/28 08:34:10;;;;;;;20.55;12.58;;;;;;;-0.31;77.56;99583.00;1739419;81;21197;-72
2020/12/28 08:36:52;;;;;;;19.37;12.05;;;;;;;-0.29;77.69;99578.55;1743928;81;21667;-70
2020/12/28 08:39:27;;;;;;;23.90;12.30;;;;;;;-0.28;77.65;99577.65;1696249;83;21171;-75
2020/12/28 08:42:00;;;;;;;22.58;11.45;;;;;;;-0.27;77.48;99568.08;1709409;83;21341;-71
2020/12/28 08:44:30;;;;;;;18.77;11.65;;;;;;;-0.25;77.28;99565.77;1714915;83;22308;-69
2020/12/28 08:47:04;;;;;;;17.23;10.28;;;;;;;-0.25;77.34;99572.27;1705943;83;21236;-67
2020/12/28 08:49:33;;;;;;;20.40;11.13;;;;;;;-0.23;77.10;99548.33;1705858;83;21615;-68
2020/12/28 08:52:11;;;;;;;19.20;11.18;;;;;;;-0.23;77.13;99541.00;1702036;83;21240;-68
2020/12/28 08:54:39;;;;;;;16.93;10.72;;;;;;;-0.19;77.25;99536.01;1710421;83;21236;-70
2020/12/28 08:57:20;;;;;;;21.15;11.63;;;;;;;-0.18;77.08;99545.50;1729844;82;21300;-71
2020/12/28 08:59:48;;;;;;;17.32;9.88;;;;;;;-0.15;77.10;99549.24;1718568;81;21318;-71
2020/12/28 09:02:17;;;;;;;15.40;9.38;;;;;;;-0.10;76.76;99551.11;1745823;82;21641;-72
2020/12/28 09:04:46;;;;;;;14.75;9.10;;;;;;;-0.09;76.58;99531.17;1739561;81;21183;-71
2020/12/28 09:07:14;;;;;;;17.00;9.65;;;;;;;-0.08;76.45;99522.44;1738215;81;21610;-73
2020/12/28 09:09:44;;;;;;;19.07;10.50;;;;;;;-0.07;76.52;99520.22;1746459;82;21195;-72
2020/12/28 09:12:13;;;;;;;17.50;10.82;;;;;;;-0.07;76.46;99513.25;1711913;82;21172;-72
2020/12/28 09:14:42;;;;;;;21.50;11.18;;;;;;;-0.05;76.72;99510.58;1746075;82;21129;-73
2020/12/28 09:17:11;;;;;;;17.27;10.50;;;;;;;-0.06;76.71;99503.69;1698986;83;21608;-70
2020/12/28 09:19:39;;;;;;;18.70;10.28;;;;;;;-0.05;76.75;99513.17;1720353;82;21203;-75
2020/12/28 09:22:08;;;;;;;17.62;9.90;;;;;;;-0.06;76.96;99478.98;1721115;83;21211;-75
2020/12/28 09:24:36;;;;;;;14.63;9.55;;;;;;;-0.07;77.13;99494.22;1724864;83;21211;-72
2020/12/28 09:27:03;;;;;;;14.23;9.45;;;;;;;-0.07;77.04;99487.25;1720453;83;21647;-72
2020/12/28 09:29:32;;;;;;;19.40;10.35;;;;;;;-0.08;77.24;99495.13;1715862;83;21205;-70
2020/12/28 09:31:59;;;;;;;15.72;10.13;;;;;;;-0.05;77.27;99497.58;1730141;81;21192;-72
2020/12/28 09:34:27;;;;;;;16.60;10.30;;;;;;;-0.04;77.35;99477.13;1734396;81;21155;-70
2020/12/28 09:37:03;;;;;;;19.67;10.63;;;;;;;-0.02;77.52;99489.58;1739025;82;21362;-73
2020/12/28 09:39:31;;;;;;;16.65;9.38;;;;;;;0.02;77.35;99485.91;1743698;81;21391;-72
2020/12/28 09:41:59;;;;;;;20.23;10.93;;;;;;;0.01;77.32;99492.49;1743137;81;21743;-72
2020/12/28 09:44:28;;;;;;;17.75;10.32;;;;;;;0.04;77.38;99467.16;1734290;82;21337;-73
2020/12/28 09:46:57;;;;;;;17.52;10.40;;;;;;;0.07;77.25;99474.77;1718541;82;21200;-71
2020/12/28 09:49:25;;;;;;;16.80;10.13;;;;;;;0.08;77.02;99464.76;1739418;81;21613;-72
2020/12/28 09:51:54;;;;;;;16.73;10.38;;;;;;;0.11;76.97;99468.94;1740347;81;21368;-72
2020/12/28 09:54:23;;;;;;;15.88;10.20;;;;;;;0.08;77.07;99485.56;1740060;81;21227;-74
2020/12/28 09:56:52;;;;;;;16.00;9.93;;;;;;;0.08;77.21;99482.13;1742432;81;21236;-71
2020/12/28 09:59:20;;;;;;;15.30;9.98;;;;;;;0.05;77.67;99469.30;1738673;81;21174;-75
2020/12/28 10:01:48;;;;;;;16.52;10.50;;;;;;;0.03;78.19;99466.77;1685367;83;21158;-73
2020/12/28 10:04:17;;;;;;;16.97;9.63;;;;;;;0.04;78.73;99469.77;1712847;83;21170;-72
2020/12/28 10:06:45;;;;;;;16.20;10.08;;;;;;;0.03;79.04;99468.55;1690983;83;21181;-72
2020/12/28 10:09:14;;;;;;;19.85;11.45;;;;;;;0.03;79.29;99457.67;1694186;84;21649;-73
2020/12/28 10:11:41;;;;;;;17.45;11.00;;;;;;;0.01;79.46;99447.83;1655007;85;21589;-72
2020/12/28 10:14:09;;;;;;;16.75;10.28;;;;;;;0.04;79.64;99434.66;1696988;83;21731;-74
2020/12/28 10:16:37;;;;;;;20.20;10.60;;;;;;;0.06;80.78;99435.41;1714675;82;21609;-74
2020/12/28 10:19:05;;;;;;;17.32;10.58;;;;;;;0.05;82.49;99437.62;1742623;81;21144;-71
2020/12/28 10:21:32;;;;;;;17.50;10.15;;;;;;;0.04;83.12;99424.70;1745119;81;21635;-74
2020/12/28 10:24:01;;;;;;;18.30;11.33;;;;;;;-0.01;84.46;99424.97;1704423;83;21186;-74
2020/12/28 10:26:28;;;;;;;20.55;10.18;;;;;;;-0.03;84.86;99421.63;1701773;83;21168;-74
2020/12/28 10:28:57;;;;;;;17.87;10.55;;;;;;;-0.09;86.37;99424.58;1737336;82;21314;-74
2020/12/28 10:31:25;;;;;;;15.95;10.30;;;;;;;-0.10;87.32;99411.20;1740700;82;21152;-73
2020/12/28 10:33:54;;;;;;;14.95;8.90;;;;;;;-0.17;88.82;99397.70;1698911;82;21587;-73
2020/12/28 10:36:24;;;;;;;15.15;8.95;;;;;;;-0.22;90.80;99398.44;1706872;83;21175;-75
2020/12/28 10:38:53;;;;;;;16.97;10.28;;;;;;;-0.25;92.99;99398.13;1704323;83;21176;-79
2020/12/28 10:41:29;;;;;;;17.17;9.28;;;;;;;-0.31;94.63;99401.55;1704984;83;21180;-80
2020/12/28 10:43:57;;;;;;;17.27;10.10;;;;;;;-0.37;96.78;99399.28;1698486;83;21200;-79
2020/12/28 10:46:25;;;;;;;16.07;9.50;;;;;;;-0.46;97.61;99396.28;1682518;84;21168;-77
2020/12/28 10:48:56;;;;;;;15.48;9.30;;;;;;;-0.46;98.07;99385.06;1741370;81;21151;-77
2020/12/28 10:51:25;;;;;;;16.12;10.10;;;;;;;-0.47;98.13;99379.47;1738368;82;21175;-77
2020/12/28 10:53:54;;;;;;;17.65;9.98;;;;;;;-0.50;98.56;99376.59;1718253;83;21200;-78
2020/12/28 10:56:26;;;;;;;15.13;9.10;;;;;;;-0.52;98.12;99394.03;1710921;83;21244;-76
2020/12/28 10:58:56;;;;;;;20.02;10.82;;;;;;;-0.52;97.68;99390.61;1707967;82;21604;-76
2020/12/28 11:01:26;;;;;;;15.32;9.40;;;;;;;-0.57;97.44;99390.02;1729374;82;21614;-78
2020/12/28 11:03:55;;;;;;;19.07;10.58;;;;;;;-0.62;97.76;99387.65;1739212;82;21641;-77
2020/12/28 11:06:23;;;;;;;19.45;10.85;;;;;;;-0.64;98.24;99381.70;1743866;81;21624;-76
2020/12/28 11:08:51;;;;;;;17.15;10.28;;;;;;;-0.65;97.97;99365.77;1741974;81;21612;-75
2020/12/28 11:11:21;;;;;;;19.62;10.98;;;;;;;-0.68;98.90;99362.86;1739032;81;21612;-77
2020/12/28 11:13:51;;;;;;;17.32;9.80;;;;;;;-0.64;99.13;99357.86;1718054;82;21199;-77
2020/12/28 11:16:26;;;;;;;19.42;10.70;;;;;;;-0.60;98.60;99345.55;1746999;81;21299;-74
2020/12/28 11:18:55;;;;;;;19.87;12.45;;;;;;;-0.61;98.81;99338.69;1747396;82;21598;-74
2020/12/28 11:21:24;;;;;;;18.25;10.23;;;;;;;-0.63;98.64;99338.77;1743716;81;21171;-76
2020/12/28 11:24:03;;;;;;;17.15;11.00;;;;;;;-0.62;98.43;99339.59;1709974;82;21302;-76
2020/12/28 11:26:35;;;;;;;16.35;10.00;;;;;;;-0.65;97.92;99338.02;1741728;81;21143;-74
2020/12/28 11:29:05;;;;;;;18.25;11.10;;;;;;;-0.67;97.90;99315.66;1709307;83;21165;-71
2020/12/28 11:31:33;;;;;;;18.70;10.98;;;;;;;-0.69;97.57;99320.94;1723834;83;21610;-71
2020/12/28 11:34:00;;;;;;;19.10;11.00;;;;;;;-0.73;97.42;99300.41;1726805;83;21159;-77
2020/12/28 11:36:29;;;;;;;16.90;10.60;;;;;;;-0.76;97.99;99307.92;1703805;82;21147;-71
2020/12/28 11:38:57;;;;;;;16.87;10.05;;;;;;;-0.75;98.14;99323.03;1726636;82;21152;-71
2020/12/28 11:41:27;;;;;;;21.68;11.65;;;;;;;-0.75;98.58;99303.08;1735121;82;21115;-76
2020/12/28 11:43:54;;;;;;;22.85;11.88;;;;;;;-0.73;97.61;99296.07;1733950;82;21155;-75